DLBO2: Little Beaver nr Duncan

Data processed at Wed May 22 2019 23:50


All information presented herein is the property of the government of the United States of America and may be revised or deleted at any time without prior notice.
Dissemination of this information without the expressed written consent of the Public Affairs Office, Tulsa District U.S. Army Corps of Engineers is strictly prohibited.
These data are gathered electronically and, as presented, have not undergone any form of quality control. These data are not guaranteed to be valid or correct.
Go to home page.
Go to station list.
Go to home page.

Downstream station:


Previous Day
Next Day
Current Day
    
SHEF ID:       DLBO2     Little Beaver Creek near Duncan,
STATION TYPE:  

               PRECIP     STAGE  STAGE(2)  RIV-FLOW  BAT-LOAD
                   in        ft        ft       cfs      volt
              Ccp-Rev   Ccp-Rev   Ccp-Rev   Ccp-Rev   Ccp-Rev
(US/Central)
05/22 00:00      0.00     15.04      ----      1320     12.65
05/22 01:00      0.00     14.63      ----      1222     12.65
05/22 02:00      0.00     14.21      ----      1121     12.65
05/22 03:00      0.00     13.86      ----      1037     12.60
05/22 04:00      0.00     13.52      ----       956     12.60
05/22 05:00      0.00     13.20      ----       879     12.60
05/22 06:00      0.00     12.99      ----       829     12.60
05/22 07:00      0.00     12.75      ----       771     12.54
05/22 08:00      0.00     12.55      ----       723     12.60
05/22 09:00      0.00     12.36      ----       678     12.77
05/22 10:00      0.00     12.20      ----       640     12.89
05/22 11:00      0.00     11.98      ----       587     13.07
05/22 12:00      0.00     11.85      ----       556     13.18
05/22 13:00      0.00     11.74      ----       529     13.30
05/22 14:00      0.00     11.61      ----       498     13.53
05/22 15:00      0.00     11.45      ----       460     13.24
05/22 16:00      0.00     11.36      ----       438     13.36
05/22 17:00      0.00     11.23      ----       407     13.24
05/22 18:00      0.00     11.12      ----       381     13.12
05/22 19:00      0.00     11.03      ----       359     13.18
05/22 20:00      0.00     10.94      ----       338     12.89
05/22 21:00      0.00     10.84      ----       314     12.77
05/22 22:00      0.00     10.77      ----       297     12.71
05/22 23:00      ----      ----      ----      ----      ----